createdAt,value
2022-11-21T00:01:30.041Z,100600.13
2022-11-21T00:06:53.353Z,100632.84
2022-11-21T00:12:18.485Z,100616.47
2022-11-21T00:17:41.569Z,100644.03
2022-11-21T00:23:04.806Z,100643.19
2022-11-21T00:28:29.303Z,100639.72
2022-11-21T00:33:52.568Z,100623.38
2022-11-21T00:39:15.672Z,100633.72
2022-11-21T00:44:40.195Z,100626.84
2022-11-21T00:50:03.382Z,100608.75
2022-11-21T00:55:26.820Z,100590.66
2022-11-21T01:00:51.459Z,100625.09
2022-11-21T01:06:15.666Z,100610.47
2022-11-21T01:11:38.838Z,100600.97
2022-11-21T01:17:03.384Z,100596.69
2022-11-21T01:22:26.558Z,100607.00
2022-11-21T01:27:49.716Z,100600.94
2022-11-21T01:33:14.325Z,100591.50
2022-11-21T01:38:37.500Z,100583.75
2022-11-21T01:44:00.780Z,100583.66
2022-11-21T01:49:27.617Z,100593.03
2022-11-21T01:54:53.624Z,100589.66
2022-11-21T02:00:21.637Z,100590.47
2022-11-21T02:05:46.353Z,100592.13
2022-11-21T02:11:15.611Z,100593.91
2022-11-21T02:16:38.903Z,100600.66
2022-11-21T02:22:07.393Z,100590.41
2022-11-21T02:27:32.314Z,100589.53
2022-11-21T02:32:55.521Z,100598.22
2022-11-21T02:38:21.196Z,100599.13
2022-11-21T02:43:48.720Z,100582.78
2022-11-21T02:49:12.023Z,100581.94
2022-11-21T02:54:35.314Z,100556.97
2022-11-21T02:59:59.922Z,100557.81
2022-11-21T03:05:23.775Z,100531.13
2022-11-21T03:10:46.881Z,100518.19
2022-11-21T03:16:11.410Z,100518.19
2022-11-21T03:21:34.618Z,100514.72
2022-11-21T03:26:57.848Z,100508.66
2022-11-21T03:32:22.440Z,100501.88
2022-11-21T03:37:45.730Z,100510.50
2022-11-21T03:43:09.398Z,100520.88
2022-11-21T03:48:33.931Z,100519.19
2022-11-21T03:53:57.189Z,100518.34
2022-11-21T03:59:20.357Z,100513.19
2022-11-21T04:04:44.918Z,100512.31
2022-11-21T04:10:08.794Z,100500.25
2022-11-21T04:15:31.999Z,100513.16
2022-11-21T04:20:59.007Z,100514.94
2022-11-21T04:26:22.103Z,100508.06
2022-11-21T04:31:45.333Z,100499.44
2022-11-21T04:37:11.766Z,100502.03
2022-11-21T04:42:35.117Z,100498.56
2022-11-21T04:47:58.537Z,100484.81
2022-11-21T04:53:23.105Z,100479.69
2022-11-21T04:58:46.238Z,100472.78
2022-11-21T05:04:09.449Z,100460.72
2022-11-21T05:09:34.041Z,100461.63
2022-11-21T05:14:57.306Z,100464.19
2022-11-21T05:20:20.602Z,100461.63
2022-11-21T05:25:45.115Z,100452.19
2022-11-21T05:31:08.401Z,100442.69
2022-11-21T05:36:31.590Z,100434.97
2022-11-21T05:41:59.868Z,100437.53
2022-11-21T05:47:24.568Z,100434.09
2022-11-21T05:52:47.691Z,100435.81
2022-11-21T05:58:12.287Z,100432.38
2022-11-21T06:03:37.029Z,100417.78
2022-11-21T06:09:00.369Z,100426.34
2022-11-21T06:14:25.143Z,100434.97
2022-11-21T06:19:48.347Z,100435.81
2022-11-21T06:25:11.519Z,100413.47
2022-11-21T06:30:36.341Z,100427.22
2022-11-21T06:35:59.616Z,100422.94
2022-11-21T06:41:25.638Z,100401.47
2022-11-21T06:46:51.659Z,100391.97
2022-11-21T06:52:15.084Z,100377.38
2022-11-21T06:57:38.269Z,100364.47
2022-11-21T07:03:03.708Z,100371.38
2022-11-21T07:08:27.407Z,100378.22
2022-11-21T07:13:50.612Z,100370.47
2022-11-21T07:19:15.289Z,100367.00
2022-11-21T07:24:38.434Z,100372.19
2022-11-21T07:30:01.672Z,100373.03
2022-11-21T07:35:26.724Z,100372.19
2022-11-21T07:40:51.630Z,100367.88
2022-11-21T07:46:14.859Z,100358.47
2022-11-21T07:51:39.422Z,100350.69
2022-11-21T07:57:02.715Z,100307.75
2022-11-21T08:02:27.527Z,100321.47
2022-11-21T08:07:52.117Z,100336.06
2022-11-21T08:13:15.502Z,100336.00
2022-11-21T08:18:38.659Z,100321.41
2022-11-21T08:24:03.431Z,100316.22
2022-11-21T08:29:27.170Z,100325.63
2022-11-21T08:34:50.505Z,100321.28
2022-11-21T08:40:15.361Z,100323.75
2022-11-21T08:45:39.650Z,100297.19
2022-11-21T08:51:02.951Z,100281.69
2022-11-21T08:56:27.601Z,100279.03
2022-11-21T09:01:50.821Z,100291.84
2022-11-21T09:07:14.144Z,100272.84
2022-11-21T09:12:38.642Z,100262.53
2022-11-21T09:18:04.882Z,100255.63
2022-11-21T09:23:28.078Z,100248.72
2022-11-21T09:28:52.560Z,100240.75
2022-11-21T09:34:15.725Z,100236.19
2022-11-21T09:39:38.874Z,100217.91
2022-11-21T09:45:13.009Z,100199.78
2022-11-21T09:50:37.633Z,100202.13
2022-11-21T09:56:02.677Z,100191.09
2022-11-21T10:01:28.653Z,100201.25
2022-11-21T10:06:59.587Z,100189.19
2022-11-21T10:12:38.996Z,100205.53
2022-11-21T10:18:18.970Z,100192.78
2022-11-21T10:23:56.079Z,100184.22
2022-11-21T10:29:21.741Z,100170.59
2022-11-21T10:34:47.326Z,100171.19
2022-11-21T10:40:17.644Z,100166.78
2022-11-21T10:45:40.785Z,100153.03
2022-11-21T10:51:18.426Z,100142.19
2022-11-21T10:56:41.498Z,100139.00
2022-11-21T11:02:23.663Z,100130.41
2022-11-21T11:08:01.309Z,100113.78
2022-11-21T11:13:46.268Z,100127.66
2022-11-21T11:19:18.764Z,100107.66
2022-11-21T11:24:57.615Z,100084.13
2022-11-21T11:30:23.556Z,100091.38
2022-11-21T11:35:47.068Z,100081.84
2022-11-21T11:41:18.166Z,100069.50
2022-11-21T11:47:04.309Z,100056.66
2022-11-21T11:52:30.978Z,100034.72
2022-11-21T11:57:57.745Z,100021.31
2022-11-21T12:03:22.989Z,100006.13
2022-11-21T12:08:53.390Z,99989.19
2022-11-21T12:14:47.151Z,99958.56
2022-11-21T12:20:16.701Z,99968.06
2022-11-21T12:25:42.956Z,99961.78
2022-11-21T12:31:11.020Z,99941.78
2022-11-21T12:36:40.010Z,99935.50
2022-11-21T12:42:26.665Z,99930.88
2022-11-21T12:48:47.121Z,99914.34
2022-11-21T12:54:31.388Z,99897.09
2022-11-21T13:00:01.226Z,99882.00
2022-11-21T13:05:28.876Z,99880.38
2022-11-21T13:11:16.606Z,99862.78
2022-11-21T13:16:46.530Z,99853.03
2022-11-21T13:22:51.031Z,99835.59
2022-11-21T13:28:37.636Z,99825.38
2022-11-21T13:34:01.129Z,99810.59
2022-11-21T13:39:29.484Z,99799.91
2022-11-21T13:44:54.441Z,99784.69
2022-11-21T13:50:24.869Z,99777.69
2022-11-21T13:55:57.993Z,99770.69
2022-11-21T14:01:39.922Z,99754.78
2022-11-21T14:07:22.513Z,99745.47
2022-11-21T14:12:48.512Z,99743.56
2022-11-21T14:18:21.870Z,99733.22
2022-11-21T14:23:45.266Z,99719.75
2022-11-21T14:29:18.595Z,99701.94
2022-11-21T14:34:43.154Z,99708.63
2022-11-21T14:40:07.155Z,99701.13
2022-11-21T14:45:30.434Z,99699.53
2022-11-21T14:50:55.042Z,99691.16
2022-11-21T14:56:21.778Z,99679.44
2022-11-21T15:01:56.581Z,99656.34
2022-11-21T15:07:28.383Z,99662.22
2022-11-21T15:12:57.564Z,99652.69
2022-11-21T15:18:27.749Z,99618.78
2022-11-21T15:23:56.522Z,99665.75
2022-11-21T15:29:21.885Z,99647.72
2022-11-21T15:34:45.305Z,99646.97
2022-11-21T15:40:19.848Z,99645.97
2022-11-21T15:45:43.091Z,99634.00
2022-11-21T15:51:06.350Z,99623.69
2022-11-21T15:56:30.916Z,99613.31
2022-11-21T16:01:54.112Z,99607.91
2022-11-21T16:07:17.328Z,99597.56
2022-11-21T16:12:41.856Z,99587.00
2022-11-21T16:18:05.080Z,99563.72
2022-11-21T16:23:28.206Z,99559.25
2022-11-21T16:28:54.516Z,99556.59
2022-11-21T16:34:19.743Z,99563.84
2022-11-21T16:39:42.910Z,99548.34
2022-11-21T16:45:08.314Z,99543.06
2022-11-21T16:50:31.511Z,99480.66
2022-11-21T16:56:01.223Z,99521.25
2022-11-21T17:01:28.080Z,99505.97
2022-11-21T17:06:53.214Z,99484.13
2022-11-21T17:12:16.366Z,99475.59
2022-11-21T17:17:41.517Z,99461.72
2022-11-21T17:23:04.761Z,99461.06
2022-11-21T17:28:27.945Z,99457.72
2022-11-21T17:33:54.677Z,99452.72
2022-11-21T17:39:18.910Z,99434.59
2022-11-21T17:44:42.076Z,99425.09
2022-11-21T17:50:07.400Z,99408.84
2022-11-21T17:55:30.489Z,99412.78
2022-11-21T18:00:56.938Z,99405.84
2022-11-21T18:06:21.562Z,99388.56
2022-11-21T18:12:06.538Z,99381.94
2022-11-21T18:17:29.718Z,99383.81
2022-11-21T18:22:54.198Z,99374.00
2022-11-21T18:28:17.352Z,99371.50
2022-11-21T18:33:41.017Z,99353.56
2022-11-21T18:39:12.343Z,99349.25
2022-11-21T18:44:37.641Z,99334.72
2022-11-21T18:50:00.822Z,99332.00
2022-11-21T18:55:27.292Z,99324.13
2022-11-21T19:00:50.522Z,99317.28
2022-11-21T19:06:17.742Z,99304.41
2022-11-21T19:11:42.349Z,99289.50
2022-11-21T19:17:05.561Z,99281.06
2022-11-21T19:22:29.506Z,99277.44
2022-11-21T19:27:54.208Z,99270.50
2022-11-21T19:33:17.477Z,99264.22
2022-11-21T19:38:40.661Z,99254.91
2022-11-21T19:44:05.608Z,99237.78
2022-11-21T19:49:28.978Z,99236.81
2022-11-21T19:54:52.245Z,99233.28
2022-11-21T20:00:18.412Z,99230.69
2022-11-21T20:05:41.617Z,99223.66
2022-11-21T20:11:06.346Z,99216.88
2022-11-21T20:16:32.576Z,99203.75
2022-11-21T20:21:56.143Z,99202.06
2022-11-21T20:27:19.356Z,99199.81
2022-11-21T20:32:43.987Z,99198.97
2022-11-21T20:38:07.230Z,99196.38
2022-11-21T20:43:59.515Z,99191.56
2022-11-21T20:49:15.493Z,99174.75
2022-11-21T20:54:38.604Z,99184.91
2022-11-21T21:00:01.808Z,99178.22
2022-11-21T21:05:26.402Z,99192.81
2022-11-21T21:11:05.026Z,99187.66
2022-11-21T21:16:30.387Z,99168.66
2022-11-21T21:21:54.973Z,99172.91
2022-11-21T21:27:18.152Z,99170.25
2022-11-21T21:32:41.330Z,99168.47
2022-11-21T21:38:08.898Z,99153.13
2022-11-21T21:43:32.481Z,99148.88
2022-11-21T21:48:57.026Z,99140.19
2022-11-21T21:54:23.213Z,99146.22
2022-11-21T21:59:46.401Z,99139.41
2022-11-21T22:05:09.840Z,99123.91
2022-11-21T22:10:34.349Z,99129.03
2022-11-21T22:15:57.615Z,99117.91
2022-11-21T22:21:21.842Z,99109.00
2022-11-21T22:26:46.961Z,99103.91
2022-11-21T22:32:10.146Z,99089.91
2022-11-21T22:37:33.375Z,99083.00
2022-11-21T22:42:57.886Z,99075.31
2022-11-21T22:48:21.034Z,99069.19
2022-11-21T22:53:46.448Z,99060.53
2022-11-21T22:59:13.475Z,99056.94
2022-11-21T23:04:36.650Z,99052.69
2022-11-21T23:10:00.333Z,99044.88
2022-11-21T23:15:24.835Z,99036.38
2022-11-21T23:20:48.210Z,99033.03
2022-11-21T23:26:11.633Z,99023.53
2022-11-21T23:31:36.266Z,99022.84
2022-11-21T23:36:59.501Z,99025.22
2022-11-21T23:42:22.634Z,99022.75
2022-11-21T23:47:47.220Z,99021.72
2022-11-21T23:53:10.480Z,99013.59
2022-11-21T23:58:33.708Z,99010.84
